Terminal Aerodrome Forecast
Issued by NWS

Home | Current Version | Previous Version | Graphics & Text | Print | Product List | Glossary On
Versions: 1 2 3 4 5 6 7 8 9 10 11 12 13 14 15 16 17 18 19 20 21 22 23
000
FTUS43 KGRB 211720
TAFATW
TAF
KATW 211720Z 2118/2218 06005KT 3SM BR BKN004
     FM220000 05005KT 2SM BR OVC004
     FM220600 04011G19KT 2SM -RA BR OVC006
     FM221100 04014G24KT 1SM -RASN BR OVC004
     FM221500 04018G28KT 3SM -RA BR OVC006=

USA.gov is the U.S. government's official web portal to all federal, state and local government web resources and services.